sensor_id;sensor_type;location;lat;lon;timestamp;temperature;humidity
16441;DHT22;8330;-33.858;151.184;2023-06-24T00:00:49;15.90;99.90
16441;DHT22;8330;-33.858;151.184;2023-06-24T00:03:23;15.80;99.90
16441;DHT22;8330;-33.858;151.184;2023-06-24T00:05:55;15.90;99.90
16441;DHT22;8330;-33.858;151.184;2023-06-24T00:08:32;16.00;99.90
16441;DHT22;8330;-33.858;151.184;2023-06-24T00:11:04;16.10;99.90
16441;DHT22;8330;-33.858;151.184;2023-06-24T00:13:42;16.20;99.90
16441;DHT22;8330;-33.858;151.184;2023-06-24T00:16:13;16.20;99.90
16441;DHT22;8330;-33.858;151.184;2023-06-24T00:18:56;16.20;99.90
16441;DHT22;8330;-33.858;151.184;2023-06-24T00:21:48;16.20;99.90
16441;DHT22;8330;-33.858;151.184;2023-06-24T00:24:28;16.10;99.90
16441;DHT22;8330;-33.858;151.184;2023-06-24T00:27:21;16.10;99.90
16441;DHT22;8330;-33.858;151.184;2023-06-24T00:30:21;16.20;99.90
16441;DHT22;8330;-33.858;151.184;2023-06-24T00:32:55;16.30;99.90
16441;DHT22;8330;-33.858;151.184;2023-06-24T00:35:28;16.40;99.90
16441;DHT22;8330;-33.858;151.184;2023-06-24T00:38:02;16.30;99.90
16441;DHT22;8330;-33.858;151.184;2023-06-24T00:40:33;16.40;99.90
16441;DHT22;8330;-33.858;151.184;2023-06-24T00:43:07;16.50;99.90
16441;DHT22;8330;-33.858;151.184;2023-06-24T00:45:45;16.50;99.90
16441;DHT22;8330;-33.858;151.184;2023-06-24T00:48:23;16.60;99.90
16441;DHT22;8330;-33.858;151.184;2023-06-24T00:50:59;16.80;99.90
16441;DHT22;8330;-33.858;151.184;2023-06-24T00:53:33;16.80;99.90
16441;DHT22;8330;-33.858;151.184;2023-06-24T00:56:06;16.90;99.90
16441;DHT22;8330;-33.858;151.184;2023-06-24T00:58:38;17.00;99.90
16441;DHT22;8330;-33.858;151.184;2023-06-24T01:01:13;17.10;99.90
16441;DHT22;8330;-33.858;151.184;2023-06-24T01:03:46;17.10;99.90
16441;DHT22;8330;-33.858;151.184;2023-06-24T01:06:20;17.10;99.90
16441;DHT22;8330;-33.858;151.184;2023-06-24T01:08:57;17.00;99.90
16441;DHT22;8330;-33.858;151.184;2023-06-24T01:11:35;17.00;99.90
16441;DHT22;8330;-33.858;151.184;2023-06-24T01:14:06;17.00;99.90
16441;DHT22;8330;-33.858;151.184;2023-06-24T01:16:58;17.10;99.40
16441;DHT22;8330;-33.858;151.184;2023-06-24T01:19:54;17.10;99.90
16441;DHT22;8330;-33.858;151.184;2023-06-24T01:25:50;17.30;99.90
16441;DHT22;8330;-33.858;151.184;2023-06-24T01:28:36;17.50;99.90
16441;DHT22;8330;-33.858;151.184;2023-06-24T01:31:39;17.60;98.90
16441;DHT22;8330;-33.858;151.184;2023-06-24T01:34:18;17.60;96.20
16441;DHT22;8330;-33.858;151.184;2023-06-24T01:36:57;17.70;97.60
16441;DHT22;8330;-33.858;151.184;2023-06-24T01:39:33;17.70;95.90
16441;DHT22;8330;-33.858;151.184;2023-06-24T01:42:10;17.70;96.20
16441;DHT22;8330;-33.858;151.184;2023-06-24T01:44:45;17.80;95.70
16441;DHT22;8330;-33.858;151.184;2023-06-24T01:47:25;17.80;94.50
16441;DHT22;8330;-33.858;151.184;2023-06-24T01:50:01;17.90;94.80
16441;DHT22;8330;-33.858;151.184;2023-06-24T01:52:33;17.90;93.80
16441;DHT22;8330;-33.858;151.184;2023-06-24T01:55:05;18.00;94.00
16441;DHT22;8330;-33.858;151.184;2023-06-24T01:57:37;18.00;93.40
16441;DHT22;8330;-33.858;151.184;2023-06-24T02:00:13;17.90;93.70
16441;DHT22;8330;-33.858;151.184;2023-06-24T02:02:54;18.00;93.80
16441;DHT22;8330;-33.858;151.184;2023-06-24T02:05:28;18.00;91.90
16441;DHT22;8330;-33.858;151.184;2023-06-24T02:08:00;18.00;93.00
16441;DHT22;8330;-33.858;151.184;2023-06-24T02:10:31;18.00;93.20
16441;DHT22;8330;-33.858;151.184;2023-06-24T02:13:04;18.10;92.60
16441;DHT22;8330;-33.858;151.184;2023-06-24T02:15:36;18.20;93.00
16441;DHT22;8330;-33.858;151.184;2023-06-24T02:18:13;18.20;92.80
16441;DHT22;8330;-33.858;151.184;2023-06-24T02:20:46;18.30;93.10
16441;DHT22;8330;-33.858;151.184;2023-06-24T02:23:20;18.30;91.40
16441;DHT22;8330;-33.858;151.184;2023-06-24T02:25:53;18.40;90.70
16441;DHT22;8330;-33.858;151.184;2023-06-24T02:28:26;18.20;91.70
16441;DHT22;8330;-33.858;151.184;2023-06-24T02:30:59;18.40;92.00
16441;DHT22;8330;-33.858;151.184;2023-06-24T02:33:34;18.40;90.60
16441;DHT22;8330;-33.858;151.184;2023-06-24T02:36:05;18.50;90.60
16441;DHT22;8330;-33.858;151.184;2023-06-24T02:38:37;18.50;91.60
16441;DHT22;8330;-33.858;151.184;2023-06-24T02:41:09;18.60;91.00
16441;DHT22;8330;-33.858;151.184;2023-06-24T02:43:41;18.60;91.10
16441;DHT22;8330;-33.858;151.184;2023-06-24T02:46:13;18.70;91.60
16441;DHT22;8330;-33.858;151.184;2023-06-24T02:48:49;18.70;90.90
16441;DHT22;8330;-33.858;151.184;2023-06-24T02:51:22;18.70;90.20
16441;DHT22;8330;-33.858;151.184;2023-06-24T02:53:54;18.70;90.80
16441;DHT22;8330;-33.858;151.184;2023-06-24T02:56:27;18.80;89.10
16441;DHT22;8330;-33.858;151.184;2023-06-24T02:58:58;18.80;89.40
16441;DHT22;8330;-33.858;151.184;2023-06-24T03:01:30;18.80;89.10
16441;DHT22;8330;-33.858;151.184;2023-06-24T03:04:09;18.80;88.70
16441;DHT22;8330;-33.858;151.184;2023-06-24T03:06:41;18.90;88.50
16441;DHT22;8330;-33.858;151.184;2023-06-24T03:09:14;18.90;86.10
16441;DHT22;8330;-33.858;151.184;2023-06-24T03:11:45;18.80;86.10
16441;DHT22;8330;-33.858;151.184;2023-06-24T03:14:17;18.80;88.30
16441;DHT22;8330;-33.858;151.184;2023-06-24T03:16:50;18.90;88.70
16441;DHT22;8330;-33.858;151.184;2023-06-24T03:19:22;19.00;87.40
16441;DHT22;8330;-33.858;151.184;2023-06-24T03:21:54;19.00;84.60
16441;DHT22;8330;-33.858;151.184;2023-06-24T03:24:26;19.00;85.80
16441;DHT22;8330;-33.858;151.184;2023-06-24T03:26:58;19.00;83.80
16441;DHT22;8330;-33.858;151.184;2023-06-24T03:29:30;19.00;87.10
16441;DHT22;8330;-33.858;151.184;2023-06-24T03:32:04;18.90;86.30
16441;DHT22;8330;-33.858;151.184;2023-06-24T03:34:39;18.90;84.90
16441;DHT22;8330;-33.858;151.184;2023-06-24T03:37:10;19.00;84.50
16441;DHT22;8330;-33.858;151.184;2023-06-24T03:39:41;19.10;84.10
16441;DHT22;8330;-33.858;151.184;2023-06-24T03:42:13;19.10;84.10
16441;DHT22;8330;-33.858;151.184;2023-06-24T03:44:47;19.00;81.40
16441;DHT22;8330;-33.858;151.184;2023-06-24T03:47:18;19.00;82.40
16441;DHT22;8330;-33.858;151.184;2023-06-24T03:49:52;19.10;85.40
16441;DHT22;8330;-33.858;151.184;2023-06-24T03:52:23;19.20;83.70
16441;DHT22;8330;-33.858;151.184;2023-06-24T03:54:54;19.20;81.40
16441;DHT22;8330;-33.858;151.184;2023-06-24T03:57:25;19.20;81.10
16441;DHT22;8330;-33.858;151.184;2023-06-24T03:59:58;19.20;80.40
16441;DHT22;8330;-33.858;151.184;2023-06-24T04:02:34;19.20;82.10
16441;DHT22;8330;-33.858;151.184;2023-06-24T04:05:09;19.20;81.60
16441;DHT22;8330;-33.858;151.184;2023-06-24T04:07:40;19.20;80.40
16441;DHT22;8330;-33.858;151.184;2023-06-24T04:10:14;19.20;78.10
16441;DHT22;8330;-33.858;151.184;2023-06-24T04:12:46;19.20;78.60
16441;DHT22;8330;-33.858;151.184;2023-06-24T04:15:17;19.30;80.10
16441;DHT22;8330;-33.858;151.184;2023-06-24T04:17:50;19.20;83.20
16441;DHT22;8330;-33.858;151.184;2023-06-24T04:20:23;19.20;84.00
16441;DHT22;8330;-33.858;151.184;2023-06-24T04:22:55;19.20;84.20
16441;DHT22;8330;-33.858;151.184;2023-06-24T04:25:26;19.20;84.90
16441;DHT22;8330;-33.858;151.184;2023-06-24T04:27:58;19.10;84.50
16441;DHT22;8330;-33.858;151.184;2023-06-24T04:30:30;19.10;85.80
16441;DHT22;8330;-33.858;151.184;2023-06-24T04:33:03;19.00;85.00
16441;DHT22;8330;-33.858;151.184;2023-06-24T04:35:37;19.10;86.00
16441;DHT22;8330;-33.858;151.184;2023-06-24T04:38:08;19.10;86.80
16441;DHT22;8330;-33.858;151.184;2023-06-24T04:40:39;19.10;87.30
16441;DHT22;8330;-33.858;151.184;2023-06-24T04:43:10;19.10;86.00
16441;DHT22;8330;-33.858;151.184;2023-06-24T04:45:41;19.10;84.90
16441;DHT22;8330;-33.858;151.184;2023-06-24T04:48:13;19.20;82.80
16441;DHT22;8330;-33.858;151.184;2023-06-24T04:50:45;19.30;82.60
16441;DHT22;8330;-33.858;151.184;2023-06-24T04:53:16;19.40;83.60
16441;DHT22;8330;-33.858;151.184;2023-06-24T04:55:47;19.40;82.60
16441;DHT22;8330;-33.858;151.184;2023-06-24T04:58:20;19.30;81.20
16441;DHT22;8330;-33.858;151.184;2023-06-24T05:00:52;19.40;81.20
16441;DHT22;8330;-33.858;151.184;2023-06-24T05:03:25;19.30;80.50
16441;DHT22;8330;-33.858;151.184;2023-06-24T05:05:59;19.20;81.50
16441;DHT22;8330;-33.858;151.184;2023-06-24T05:08:31;19.30;82.50
16441;DHT22;8330;-33.858;151.184;2023-06-24T05:11:03;19.30;81.60
16441;DHT22;8330;-33.858;151.184;2023-06-24T05:13:34;19.40;80.20
16441;DHT22;8330;-33.858;151.184;2023-06-24T05:16:08;19.30;79.50
16441;DHT22;8330;-33.858;151.184;2023-06-24T05:18:40;19.30;80.50
16441;DHT22;8330;-33.858;151.184;2023-06-24T05:21:13;19.30;81.00
16441;DHT22;8330;-33.858;151.184;2023-06-24T05:23:44;19.30;80.10
16441;DHT22;8330;-33.858;151.184;2023-06-24T05:26:15;19.30;79.70
16441;DHT22;8330;-33.858;151.184;2023-06-24T05:28:47;19.40;80.10
16441;DHT22;8330;-33.858;151.184;2023-06-24T05:31:19;19.40;79.90
16441;DHT22;8330;-33.858;151.184;2023-06-24T05:33:50;19.50;79.40
16441;DHT22;8330;-33.858;151.184;2023-06-24T05:36:24;19.40;78.50
16441;DHT22;8330;-33.858;151.184;2023-06-24T05:38:58;19.50;79.60
16441;DHT22;8330;-33.858;151.184;2023-06-24T05:41:29;19.40;78.80
16441;DHT22;8330;-33.858;151.184;2023-06-24T05:44:06;19.40;79.40
16441;DHT22;8330;-33.858;151.184;2023-06-24T05:46:37;19.40;80.20
16441;DHT22;8330;-33.858;151.184;2023-06-24T05:49:09;19.40;80.90
16441;DHT22;8330;-33.858;151.184;2023-06-24T05:51:44;19.40;81.60
16441;DHT22;8330;-33.858;151.184;2023-06-24T05:54:15;19.40;81.70
16441;DHT22;8330;-33.858;151.184;2023-06-24T05:56:47;19.40;81.60
16441;DHT22;8330;-33.858;151.184;2023-06-24T05:59:19;19.40;82.50
16441;DHT22;8330;-33.858;151.184;2023-06-24T06:01:49;19.40;83.50
16441;DHT22;8330;-33.858;151.184;2023-06-24T06:04:22;19.40;83.30
16441;DHT22;8330;-33.858;151.184;2023-06-24T06:06:58;19.40;82.90
16441;DHT22;8330;-33.858;151.184;2023-06-24T06:09:30;19.40;82.00
16441;DHT22;8330;-33.858;151.184;2023-06-24T06:12:01;19.30;81.80
16441;DHT22;8330;-33.858;151.184;2023-06-24T06:14:32;19.20;82.00
16441;DHT22;8330;-33.858;151.184;2023-06-24T06:17:04;19.30;83.10
16441;DHT22;8330;-33.858;151.184;2023-06-24T06:19:36;19.30;84.00
16441;DHT22;8330;-33.858;151.184;2023-06-24T06:22:11;19.30;84.30
16441;DHT22;8330;-33.858;151.184;2023-06-24T06:24:41;19.20;83.60
16441;DHT22;8330;-33.858;151.184;2023-06-24T06:27:14;19.20;84.70
16441;DHT22;8330;-33.858;151.184;2023-06-24T06:29:45;19.20;84.60
16441;DHT22;8330;-33.858;151.184;2023-06-24T06:32:17;19.10;84.00
16441;DHT22;8330;-33.858;151.184;2023-06-24T06:34:51;19.10;84.50
16441;DHT22;8330;-33.858;151.184;2023-06-24T06:37:23;19.10;85.30
16441;DHT22;8330;-33.858;151.184;2023-06-24T06:39:55;19.00;85.90
16441;DHT22;8330;-33.858;151.184;2023-06-24T06:42:27;18.80;87.10
16441;DHT22;8330;-33.858;151.184;2023-06-24T06:44:58;18.80;87.20
16441;DHT22;8330;-33.858;151.184;2023-06-24T06:47:28;18.70;89.40
16441;DHT22;8330;-33.858;151.184;2023-06-24T06:50:01;18.60;89.10
16441;DHT22;8330;-33.858;151.184;2023-06-24T06:52:34;18.60;89.50
16441;DHT22;8330;-33.858;151.184;2023-06-24T06:55:09;18.50;90.70
16441;DHT22;8330;-33.858;151.184;2023-06-24T06:57:40;18.40;91.70
16441;DHT22;8330;-33.858;151.184;2023-06-24T07:00:12;18.30;92.10
16441;DHT22;8330;-33.858;151.184;2023-06-24T07:02:43;18.30;92.90
16441;DHT22;8330;-33.858;151.184;2023-06-24T07:05:14;18.20;92.80
16441;DHT22;8330;-33.858;151.184;2023-06-24T07:07:48;18.10;92.70
16441;DHT22;8330;-33.858;151.184;2023-06-24T07:10:19;18.00;93.10
16441;DHT22;8330;-33.858;151.184;2023-06-24T07:12:53;17.90;93.40
16441;DHT22;8330;-33.858;151.184;2023-06-24T07:15:26;17.90;93.30
16441;DHT22;8330;-33.858;151.184;2023-06-24T07:17:57;17.80;93.70
16441;DHT22;8330;-33.858;151.184;2023-06-24T07:20:29;17.70;94.60
16441;DHT22;8330;-33.858;151.184;2023-06-24T07:23:05;17.70;94.10
16441;DHT22;8330;-33.858;151.184;2023-06-24T07:25:36;17.60;93.90
16441;DHT22;8330;-33.858;151.184;2023-06-24T07:28:07;17.50;93.20
16441;DHT22;8330;-33.858;151.184;2023-06-24T07:30:39;17.50;95.40
16441;DHT22;8330;-33.858;151.184;2023-06-24T07:33:10;17.40;96.50
16441;DHT22;8330;-33.858;151.184;2023-06-24T07:35:41;17.40;97.80
16441;DHT22;8330;-33.858;151.184;2023-06-24T07:38:18;17.30;96.10
16441;DHT22;8330;-33.858;151.184;2023-06-24T07:40:50;17.30;95.70
16441;DHT22;8330;-33.858;151.184;2023-06-24T07:43:22;17.20;96.30
16441;DHT22;8330;-33.858;151.184;2023-06-24T07:45:53;17.10;95.10
16441;DHT22;8330;-33.858;151.184;2023-06-24T07:48:27;17.10;94.50
16441;DHT22;8330;-33.858;151.184;2023-06-24T07:50:58;17.00;94.30
16441;DHT22;8330;-33.858;151.184;2023-06-24T07:53:34;17.00;95.00
16441;DHT22;8330;-33.858;151.184;2023-06-24T07:56:05;17.00;94.20
16441;DHT22;8330;-33.858;151.184;2023-06-24T07:58:37;16.90;93.40
16441;DHT22;8330;-33.858;151.184;2023-06-24T08:01:07;16.90;92.70
16441;DHT22;8330;-33.858;151.184;2023-06-24T08:03:39;16.90;93.10
16441;DHT22;8330;-33.858;151.184;2023-06-24T08:06:11;16.90;92.10
16441;DHT22;8330;-33.858;151.184;2023-06-24T08:08:48;16.90;91.50
16441;DHT22;8330;-33.858;151.184;2023-06-24T08:11:20;16.90;89.80
16441;DHT22;8330;-33.858;151.184;2023-06-24T08:13:52;16.90;89.80
16441;DHT22;8330;-33.858;151.184;2023-06-24T08:16:23;16.90;88.70
16441;DHT22;8330;-33.858;151.184;2023-06-24T08:18:54;16.90;88.50
16441;DHT22;8330;-33.858;151.184;2023-06-24T08:21:25;16.90;88.40
16441;DHT22;8330;-33.858;151.184;2023-06-24T08:24:00;16.90;89.80
16441;DHT22;8330;-33.858;151.184;2023-06-24T08:26:31;16.90;89.40
16441;DHT22;8330;-33.858;151.184;2023-06-24T08:29:03;16.80;90.00
16441;DHT22;8330;-33.858;151.184;2023-06-24T08:31:42;16.80;90.10
16441;DHT22;8330;-33.858;151.184;2023-06-24T08:34:14;16.70;90.00
16441;DHT22;8330;-33.858;151.184;2023-06-24T08:36:45;16.70;90.00
16441;DHT22;8330;-33.858;151.184;2023-06-24T08:39:20;16.60;90.60
16441;DHT22;8330;-33.858;151.184;2023-06-24T08:41:57;16.60;91.20
16441;DHT22;8330;-33.858;151.184;2023-06-24T08:44:40;16.60;90.30
16441;DHT22;8330;-33.858;151.184;2023-06-24T08:47:16;16.50;90.10
16441;DHT22;8330;-33.858;151.184;2023-06-24T08:49:50;16.40;90.50
16441;DHT22;8330;-33.858;151.184;2023-06-24T08:52:28;16.40;90.60
16441;DHT22;8330;-33.858;151.184;2023-06-24T08:55:12;16.30;90.30
16441;DHT22;8330;-33.858;151.184;2023-06-24T08:57:49;16.30;90.90
16441;DHT22;8330;-33.858;151.184;2023-06-24T09:00:21;16.30;91.10
16441;DHT22;8330;-33.858;151.184;2023-06-24T09:02:56;16.30;90.50
16441;DHT22;8330;-33.858;151.184;2023-06-24T09:05:30;16.30;90.40
16441;DHT22;8330;-33.858;151.184;2023-06-24T09:08:01;16.30;90.00
16441;DHT22;8330;-33.858;151.184;2023-06-24T09:10:38;16.20;90.00
16441;DHT22;8330;-33.858;151.184;2023-06-24T09:13:10;16.20;89.50
16441;DHT22;8330;-33.858;151.184;2023-06-24T09:15:45;16.20;89.80
16441;DHT22;8330;-33.858;151.184;2023-06-24T09:18:20;16.20;88.90
16441;DHT22;8330;-33.858;151.184;2023-06-24T09:20:59;16.20;90.10
16441;DHT22;8330;-33.858;151.184;2023-06-24T09:23:38;16.20;90.60
16441;DHT22;8330;-33.858;151.184;2023-06-24T09:26:14;16.10;90.30
16441;DHT22;8330;-33.858;151.184;2023-06-24T09:28:51;16.10;90.00
16441;DHT22;8330;-33.858;151.184;2023-06-24T09:31:25;16.10;89.80
16441;DHT22;8330;-33.858;151.184;2023-06-24T09:34:00;16.10;88.50
16441;DHT22;8330;-33.858;151.184;2023-06-24T09:36:32;16.10;88.30
16441;DHT22;8330;-33.858;151.184;2023-06-24T09:39:07;16.10;88.70
16441;DHT22;8330;-33.858;151.184;2023-06-24T09:41:48;16.00;89.30
16441;DHT22;8330;-33.858;151.184;2023-06-24T09:44:23;16.00;88.90
16441;DHT22;8330;-33.858;151.184;2023-06-24T09:46:55;16.00;89.00
16441;DHT22;8330;-33.858;151.184;2023-06-24T09:49:31;16.00;89.00
16441;DHT22;8330;-33.858;151.184;2023-06-24T09:52:07;15.90;90.00
16441;DHT22;8330;-33.858;151.184;2023-06-24T09:54:48;15.90;90.00
16441;DHT22;8330;-33.858;151.184;2023-06-24T09:57:28;16.00;90.10
16441;DHT22;8330;-33.858;151.184;2023-06-24T10:00:01;15.90;89.90
16441;DHT22;8330;-33.858;151.184;2023-06-24T10:02:34;15.90;89.40
16441;DHT22;8330;-33.858;151.184;2023-06-24T10:05:06;15.90;89.40
16441;DHT22;8330;-33.858;151.184;2023-06-24T10:07:38;15.90;89.00
16441;DHT22;8330;-33.858;151.184;2023-06-24T10:10:11;15.90;90.10
16441;DHT22;8330;-33.858;151.184;2023-06-24T10:12:45;15.90;91.50
16441;DHT22;8330;-33.858;151.184;2023-06-24T10:15:17;15.80;92.10
16441;DHT22;8330;-33.858;151.184;2023-06-24T10:17:48;15.90;92.30
16441;DHT22;8330;-33.858;151.184;2023-06-24T10:20:28;15.80;93.40
16441;DHT22;8330;-33.858;151.184;2023-06-24T10:23:05;15.80;92.00
16441;DHT22;8330;-33.858;151.184;2023-06-24T10:56:43;15.40;95.30
16441;DHT22;8330;-33.858;151.184;2023-06-24T10:59:29;15.40;94.80
16441;DHT22;8330;-33.858;151.184;2023-06-24T11:02:35;15.50;96.80
16441;DHT22;8330;-33.858;151.184;2023-06-24T11:05:24;15.50;94.80
16441;DHT22;8330;-33.858;151.184;2023-06-24T11:08:15;15.40;94.90
16441;DHT22;8330;-33.858;151.184;2023-06-24T11:11:09;15.30;94.60
16441;DHT22;8330;-33.858;151.184;2023-06-24T11:14:07;15.40;95.30
16441;DHT22;8330;-33.858;151.184;2023-06-24T11:17:14;15.30;96.80
16441;DHT22;8330;-33.858;151.184;2023-06-24T11:20:21;15.30;97.70
16441;DHT22;8330;-33.858;151.184;2023-06-24T11:23:09;15.30;98.10
16441;DHT22;8330;-33.858;151.184;2023-06-24T11:25:53;15.20;98.10
16441;DHT22;8330;-33.858;151.184;2023-06-24T11:28:33;15.10;98.80
16441;DHT22;8330;-33.858;151.184;2023-06-24T11:41:13;14.90;99.50
16441;DHT22;8330;-33.858;151.184;2023-06-24T11:43:53;15.00;99.50
16441;DHT22;8330;-33.858;151.184;2023-06-24T11:46:33;15.00;97.90
16441;DHT22;8330;-33.858;151.184;2023-06-24T11:49:15;15.00;97.90
16441;DHT22;8330;-33.858;151.184;2023-06-24T11:52:02;15.00;98.10
16441;DHT22;8330;-33.858;151.184;2023-06-24T11:54:41;15.00;97.50
16441;DHT22;8330;-33.858;151.184;2023-06-24T11:57:53;15.00;97.30
16441;DHT22;8330;-33.858;151.184;2023-06-24T12:00:30;15.00;98.00
16441;DHT22;8330;-33.858;151.184;2023-06-24T12:03:04;15.00;98.30
16441;DHT22;8330;-33.858;151.184;2023-06-24T12:06:02;14.90;98.50
16441;DHT22;8330;-33.858;151.184;2023-06-24T12:08:35;14.90;98.70
16441;DHT22;8330;-33.858;151.184;2023-06-24T12:11:09;14.90;99.30
16441;DHT22;8330;-33.858;151.184;2023-06-24T12:13:53;14.90;99.90
16441;DHT22;8330;-33.858;151.184;2023-06-24T12:16:31;14.80;99.90
16441;DHT22;8330;-33.858;151.184;2023-06-24T12:19:34;14.80;99.90
16441;DHT22;8330;-33.858;151.184;2023-06-24T12:22:05;14.80;99.90
16441;DHT22;8330;-33.858;151.184;2023-06-24T12:24:36;14.80;99.90
16441;DHT22;8330;-33.858;151.184;2023-06-24T12:27:07;14.80;99.90
16441;DHT22;8330;-33.858;151.184;2023-06-24T12:29:42;14.80;99.80
16441;DHT22;8330;-33.858;151.184;2023-06-24T12:32:14;14.80;99.30
16441;DHT22;8330;-33.858;151.184;2023-06-24T12:34:46;14.80;99.20
16441;DHT22;8330;-33.858;151.184;2023-06-24T12:37:17;14.80;99.20
16441;DHT22;8330;-33.858;151.184;2023-06-24T12:39:51;14.80;99.60
16441;DHT22;8330;-33.858;151.184;2023-06-24T12:42:24;14.80;99.70
16441;DHT22;8330;-33.858;151.184;2023-06-24T12:44:57;14.80;99.90
16441;DHT22;8330;-33.858;151.184;2023-06-24T12:47:28;14.80;99.90
16441;DHT22;8330;-33.858;151.184;2023-06-24T12:50:00;14.90;99.90
16441;DHT22;8330;-33.858;151.184;2023-06-24T12:52:34;14.80;99.90
16441;DHT22;8330;-33.858;151.184;2023-06-24T12:55:05;14.80;99.90
16441;DHT22;8330;-33.858;151.184;2023-06-24T12:57:36;14.80;99.90
16441;DHT22;8330;-33.858;151.184;2023-06-24T13:00:16;14.80;99.90
16441;DHT22;8330;-33.858;151.184;2023-06-24T13:02:50;14.80;99.90
16441;DHT22;8330;-33.858;151.184;2023-06-24T13:05:21;14.80;99.90
16441;DHT22;8330;-33.858;151.184;2023-06-24T13:07:52;14.80;99.90
16441;DHT22;8330;-33.858;151.184;2023-06-24T13:10:23;14.80;99.90
16441;DHT22;8330;-33.858;151.184;2023-06-24T13:12:54;14.80;99.90
16441;DHT22;8330;-33.858;151.184;2023-06-24T13:15:27;14.80;99.90
16441;DHT22;8330;-33.858;151.184;2023-06-24T13:17:59;14.80;99.90
16441;DHT22;8330;-33.858;151.184;2023-06-24T13:20:31;14.80;99.90
16441;DHT22;8330;-33.858;151.184;2023-06-24T13:23:02;14.80;99.90
16441;DHT22;8330;-33.858;151.184;2023-06-24T13:25:33;14.90;99.90
16441;DHT22;8330;-33.858;151.184;2023-06-24T13:28:05;14.90;99.90
16441;DHT22;8330;-33.858;151.184;2023-06-24T13:30:38;14.90;99.90
16441;DHT22;8330;-33.858;151.184;2023-06-24T13:33:09;14.80;99.90
16441;DHT22;8330;-33.858;151.184;2023-06-24T13:35:42;14.80;99.90
16441;DHT22;8330;-33.858;151.184;2023-06-24T13:38:14;14.80;99.90
16441;DHT22;8330;-33.858;151.184;2023-06-24T13:40:46;14.80;99.90
16441;DHT22;8330;-33.858;151.184;2023-06-24T13:43:17;14.80;99.90
16441;DHT22;8330;-33.858;151.184;2023-06-24T13:45:50;14.80;99.90
16441;DHT22;8330;-33.858;151.184;2023-06-24T13:48:22;14.80;99.90
16441;DHT22;8330;-33.858;151.184;2023-06-24T13:50:54;14.70;99.90
16441;DHT22;8330;-33.858;151.184;2023-06-24T13:53:25;14.70;99.90
16441;DHT22;8330;-33.858;151.184;2023-06-24T13:55:57;14.70;99.90
16441;DHT22;8330;-33.858;151.184;2023-06-24T13:58:29;14.70;99.90
16441;DHT22;8330;-33.858;151.184;2023-06-24T14:01:04;14.60;99.90
16441;DHT22;8330;-33.858;151.184;2023-06-24T14:03:35;14.70;99.90
16441;DHT22;8330;-33.858;151.184;2023-06-24T14:06:07;14.70;99.90
16441;DHT22;8330;-33.858;151.184;2023-06-24T14:08:38;14.60;99.90
16441;DHT22;8330;-33.858;151.184;2023-06-24T14:11:10;14.50;99.90
16441;DHT22;8330;-33.858;151.184;2023-06-24T14:13:42;14.40;99.90
16441;DHT22;8330;-33.858;151.184;2023-06-24T14:16:18;14.30;99.90
16441;DHT22;8330;-33.858;151.184;2023-06-24T14:18:50;14.40;99.90
16441;DHT22;8330;-33.858;151.184;2023-06-24T14:21:20;14.40;99.90
16441;DHT22;8330;-33.858;151.184;2023-06-24T14:23:52;14.40;99.90
16441;DHT22;8330;-33.858;151.184;2023-06-24T14:26:23;14.40;99.90
16441;DHT22;8330;-33.858;151.184;2023-06-24T14:28:54;14.40;99.90
16441;DHT22;8330;-33.858;151.184;2023-06-24T14:31:29;14.30;99.90
16441;DHT22;8330;-33.858;151.184;2023-06-24T14:34:00;14.40;99.90
16441;DHT22;8330;-33.858;151.184;2023-06-24T14:36:31;14.30;99.90
16441;DHT22;8330;-33.858;151.184;2023-06-24T14:39:02;14.30;99.90
16441;DHT22;8330;-33.858;151.184;2023-06-24T14:41:34;14.30;99.90
16441;DHT22;8330;-33.858;151.184;2023-06-24T14:44:06;14.30;99.90
16441;DHT22;8330;-33.858;151.184;2023-06-24T14:46:40;14.30;99.90
16441;DHT22;8330;-33.858;151.184;2023-06-24T14:49:11;14.30;99.90
16441;DHT22;8330;-33.858;151.184;2023-06-24T14:51:42;14.40;99.90
16441;DHT22;8330;-33.858;151.184;2023-06-24T14:54:13;14.40;99.50
16441;DHT22;8330;-33.858;151.184;2023-06-24T14:56:44;14.40;99.90
16441;DHT22;8330;-33.858;151.184;2023-06-24T14:59:15;14.50;99.20
16441;DHT22;8330;-33.858;151.184;2023-06-24T15:01:50;14.50;98.70
16441;DHT22;8330;-33.858;151.184;2023-06-24T15:04:22;14.50;98.50
16441;DHT22;8330;-33.858;151.184;2023-06-24T15:06:55;14.50;98.40
16441;DHT22;8330;-33.858;151.184;2023-06-24T15:09:27;14.50;98.20
16441;DHT22;8330;-33.858;151.184;2023-06-24T15:11:58;14.60;98.30
16441;DHT22;8330;-33.858;151.184;2023-06-24T15:14:28;14.60;99.30
16441;DHT22;8330;-33.858;151.184;2023-06-24T15:17:04;14.60;98.80
16441;DHT22;8330;-33.858;151.184;2023-06-24T15:19:36;14.60;98.70
16441;DHT22;8330;-33.858;151.184;2023-06-24T15:22:07;14.60;99.20
16441;DHT22;8330;-33.858;151.184;2023-06-24T15:24:38;14.50;98.90
16441;DHT22;8330;-33.858;151.184;2023-06-24T15:27:12;14.50;99.40
16441;DHT22;8330;-33.858;151.184;2023-06-24T15:29:44;14.50;99.30
16441;DHT22;8330;-33.858;151.184;2023-06-24T15:32:18;14.40;99.70
16441;DHT22;8330;-33.858;151.184;2023-06-24T15:34:50;14.40;99.90
16441;DHT22;8330;-33.858;151.184;2023-06-24T15:37:22;14.40;99.90
16441;DHT22;8330;-33.858;151.184;2023-06-24T15:39:54;14.40;99.90
16441;DHT22;8330;-33.858;151.184;2023-06-24T15:42:25;14.40;99.90
16441;DHT22;8330;-33.858;151.184;2023-06-24T15:44:57;14.30;99.90
16441;DHT22;8330;-33.858;151.184;2023-06-24T15:47:31;14.30;99.90
16441;DHT22;8330;-33.858;151.184;2023-06-24T15:50:02;14.20;99.90
16441;DHT22;8330;-33.858;151.184;2023-06-24T15:52:33;14.10;99.90
16441;DHT22;8330;-33.858;151.184;2023-06-24T15:55:04;14.10;99.90
16441;DHT22;8330;-33.858;151.184;2023-06-24T15:57:36;14.10;99.90
16441;DHT22;8330;-33.858;151.184;2023-06-24T16:00:07;14.00;99.90
16441;DHT22;8330;-33.858;151.184;2023-06-24T16:02:42;14.00;99.90
16441;DHT22;8330;-33.858;151.184;2023-06-24T16:05:15;14.00;99.90
16441;DHT22;8330;-33.858;151.184;2023-06-24T16:07:46;14.00;99.90
16441;DHT22;8330;-33.858;151.184;2023-06-24T16:10:18;14.00;99.90
16441;DHT22;8330;-33.858;151.184;2023-06-24T16:12:50;14.10;99.90
16441;DHT22;8330;-33.858;151.184;2023-06-24T16:15:22;13.90;99.90
16441;DHT22;8330;-33.858;151.184;2023-06-24T16:17:56;13.90;99.90
16441;DHT22;8330;-33.858;151.184;2023-06-24T16:20:29;13.90;99.90
16441;DHT22;8330;-33.858;151.184;2023-06-24T16:23:04;13.90;99.90
16441;DHT22;8330;-33.858;151.184;2023-06-24T16:25:35;13.90;99.90
16441;DHT22;8330;-33.858;151.184;2023-06-24T16:28:07;13.90;99.90
16441;DHT22;8330;-33.858;151.184;2023-06-24T16:30:38;13.90;99.90